Weather reports worldwide

Advertisment
Rodkallen, Sweden (2188): temperature & dewpoint: 29.07.2020 00:00:00 - 04.08.2020 00:00:00 (CEST)Rodkallen, Sweden (2188): wind speed & gusts: 29.07.2020 00:00:00 - 04.08.2020 00:00:00 (CEST)Rodkallen, Sweden (2188): wind direction: 29.07.2020 00:00:00 - 04.08.2020 00:00:00 (CEST)Rodkallen, Sweden (2188): visibility: 29.07.2020 00:00:00 - 04.08.2020 00:00:00 (CEST)Rodkallen, Sweden (2188): precipitation: 29.07.2020 00:00:00 - 04.08.2020 00:00:00 (CEST)
Date & Time tt [°C] td [°C] ff [km/h] ff [kn] fx [km/h] fx [kn] dd vv [km] rr [mm]
04.08.2020 00:00:00 15,2 13,0 5 3 8 4 E 50 0,0
03.08.2020 23:00:00 15,1 13,1 5 3 8 4 E 42 0,0
03.08.2020 22:00:00 14,9 13,3 3 2 5 3 NE 38 0,0
03.08.2020 21:00:00 14,6 13,0 0 0 8 4 N 38 0,0
03.08.2020 20:00:00 15,5 13,3 6 3 10 5 SSE 39 0,0
03.08.2020 19:00:00 15,8 13,6 4 2 13 7 S 20 0,0
03.08.2020 18:00:00 16,0 12,6 8 4 11 6 SE 50 0,0
03.08.2020 17:00:00 16,0 12,5 8 4 13 7 ESE 37 0,0
03.08.2020 16:00:00 16,0 13,1 9 5 14 8 E 33 0,0
03.08.2020 15:00:00 16,3 13,4 9 5 16 9 E 36 0,0
03.08.2020 14:00:00 16,0 12,4 12 7 19 10 E 41 0,0
03.08.2020 13:00:00 16,1 12,5 16 8 22 12 ENE 32 0,0
03.08.2020 12:00:00 15,8 12,4 15 8 19 11 ENE 29 0,0
03.08.2020 11:00:00 15,8 13,1 16 9 21 12 NE 35 0,0
03.08.2020 10:00:00 15,6 13,1 18 10 23 12 NE 36 0,0
03.08.2020 09:00:00 15,6 13,4 19 10 24 13 NE 33 0,0
03.08.2020 08:00:00 15,6 13,6 19 11 25 13 NE 43 0,0
03.08.2020 07:00:00 15,3 13,3 19 11 23 12 NNE 37 0,0
03.08.2020 06:00:00 15,7 12,8 17 9 21 12 NE 44 0,0
03.08.2020 05:00:00 15,4 13,3 17 9 22 12 NE 37 0,0
03.08.2020 04:00:00 15,3 13,0 19 10 22 12 NE 49 0,0
03.08.2020 03:00:00 14,9 12,4 16 9 20 11 NNE 47 0,0
03.08.2020 02:00:00 15,3 12,1 16 9 22 12 NNE 50 0,0
03.08.2020 01:00:00 16,0 11,8 19 10 22 12 NE 50 0,0
03.08.2020 00:00:00 16,3 11,9 18 10 24 13 NE 50 0,0
02.08.2020 23:00:00 16,6 12,4 17 9 26 14 NE 50 0,0
02.08.2020 22:00:00 16,9 13,2 19 10 22 12 NE 46 0,0
02.08.2020 21:00:00 16,7 14,0 11 6 15 8 NE 41 0,0
02.08.2020 20:00:00 16,7 13,6 12 6 14 8 NE 50 0,0
02.08.2020 19:00:00 16,8 12,9 10 5 12 7 NE 48 0,0
02.08.2020 18:00:00 16,6 14,2 5 3 10 5 NE 17 0,0
02.08.2020 17:00:00 16,4 14,0 6 4 9 5 NE 21 0,0
02.08.2020 16:00:00 16,6 14,1 8 5 18 10 ENE 23 0,0
02.08.2020 15:00:00 16,4 14,2 12 7 16 9 NE 22 0,0
02.08.2020 14:00:00 16,4 13,9 14 8 23 12 NE 23 0,0
02.08.2020 13:00:00 16,0 13,8 18 10 26 14 NE 26 0,0
02.08.2020 12:00:00 16,1 14,3 22 12 28 15 NNE 21 0,0
02.08.2020 11:00:00 16,1 14,2 23 12 29 16 NNE 23 0,0
02.08.2020 10:00:00 16,2 13,5 18 10 22 12 NE 35 0,0
02.08.2020 09:00:00 16,2 13,3 14 7 19 11 NE 40 0,0
02.08.2020 08:00:00 16,0 13,8 17 9 22 12 NE 42 0,0
02.08.2020 07:00:00 15,9 13,4 9 5 21 11 ENE 33 0,0
02.08.2020 06:00:00 15,6 14,0 16 9 20 11 ENE 50 0,0
02.08.2020 05:00:00 15,6 14,1 16 8 20 11 ENE 43 0,0
02.08.2020 04:00:00 15,6 14,5 17 9 23 12 NE 43 0,0
02.08.2020 03:00:00 15,4 14,3 15 8 18 10 NNE 42 0,0
02.08.2020 02:00:00 14,5 13,2 5 3 7 4 N 50 0,0
02.08.2020 01:00:00 15,6 13,1 5 3 9 5 SSW 50 0,0
02.08.2020 00:00:00 14,9 13,8 4 2 6 4 W 24 0,0
01.08.2020 23:00:00 15,9 14,0 4 2 19 11 S 33 0,0
01.08.2020 22:00:00 16,2 14,2 14 8 19 10 ENE 37 0,0
01.08.2020 21:00:00 16,3 13,8 14 7 26 14 ESE 41 0,0
01.08.2020 20:00:00 17,7 13,2 16 8 33 18 SE 46 4,8
01.08.2020 19:00:00 16,9 14,2 16 9 46 25 E 43 0,1
01.08.2020 18:00:00 16,9 14,7 28 15 44 24 NNE 16 0,0
01.08.2020 17:00:00 17,7 14,4 12 7 18 10 SSE 43 0,0
01.08.2020 16:00:00 17,8 14,3 14 8 22 12 S 45 0,0
01.08.2020 15:00:00 17,3 14,9 14 8 23 12 SSW 44 0,0
01.08.2020 14:00:00 17,8 14,7 8 4 14 8 S 39 0,0
01.08.2020 13:00:00 17,2 14,5 14 7 16 9 S 34 0,0
01.08.2020 12:00:00 17,2 14,7 13 7 15 8 S 40 0,0
01.08.2020 11:00:00 16,4 13,9 6 4 13 7 S 42 0,0
01.08.2020 10:00:00 15,9 13,9 11 6 13 7 SSW 50 0,0
01.08.2020 09:00:00 16,0 13,7 8 5 11 6 SSW 30 0,0
01.08.2020 08:00:00 16,1 13,4 8 4 14 7 SW 30 0,0
01.08.2020 07:00:00 15,7 13,0 11 6 13 7 SW 39 0,0
01.08.2020 06:00:00 15,4 12,9 10 6 14 8 SW 45 0,0
01.08.2020 05:00:00 15,5 13,4 11 6 14 7 SW 45 0,0
01.08.2020 04:00:00 15,3 13,4 11 6 14 7 SSW 50 0,0
01.08.2020 03:00:00 15,4 13,3 9 5 11 6 SSW 50 0,0
01.08.2020 02:00:00 15,6 13,3 9 5 13 7 S 50 0,0
01.08.2020 01:00:00 15,7 12,8 8 4 11 6 S 50 0,0
01.08.2020 00:00:00 15,6 13,1 7 4 10 6 SSE 50 0,0
31.07.2020 23:00:00 15,8 13,1 8 4 14 8 SSW 50 0,0
31.07.2020 22:00:00 15,9 13,0 11 6 16 9 SW 50 0,0
31.07.2020 21:00:00 16,1 12,5 14 8 22 12 SW 50 0,0
31.07.2020 20:00:00 16,2 12,7 15 8 18 10 SW 50 0,0
31.07.2020 19:00:00 16,4 11,8 16 9 18 10 SW 49 0,0
31.07.2020 18:00:00 16,9 12,6 11 6 16 9 SSW 43 0,0
31.07.2020 17:00:00 17,4 11,0 8 4 10 6 SSE 48 0,0
31.07.2020 16:00:00 17,4 9,6 5 3 14 7 E 35 0,0
31.07.2020 15:00:00 17,0 11,7 6 4 18 10 E 31 0,0
31.07.2020 14:00:00 17,4 10,5 13 7 19 11 NE 43 0,0
31.07.2020 13:00:00 17,7 9,8 16 9 27 15 N 30 0,0
31.07.2020 12:00:00 17,0 10,8 20 11 27 15 N 42 0,0
31.07.2020 11:00:00 16,6 11,5 21 12 32 17 N 50 0,0
31.07.2020 10:00:00 15,5 10,9 26 14 36 19 NNE 41 0,0
31.07.2020 09:00:00 15,1 10,9 32 17 40 22 N 33 0,0
31.07.2020 08:00:00 14,8 10,6 32 17 40 22 N 42 0,0
31.07.2020 07:00:00 14,8 11,0 26 14 40 21 N 44 0,0
31.07.2020 06:00:00 14,7 11,3 26 14 35 19 N 44 0,0
31.07.2020 05:00:00 14,6 12,7 20 11 31 17 NNW 50 0,0
31.07.2020 04:00:00 14,7 13,1 16 9 24 13 NW 48 0,0
31.07.2020 03:00:00 14,9 13,4 15 8 21 11 NW 50 0,0
31.07.2020 02:00:00 15,2 13,6 16 8 24 13 NNW 50 0,0
31.07.2020 01:00:00 15,4 13,9 16 8 23 12 NNW 49 0,0
31.07.2020 00:00:00 15,4 13,9 15 8 26 14 NNW 46 0,0
30.07.2020 23:00:00 16,0 14,4 19 10 29 16 N 49 0,0
30.07.2020 22:00:00 16,1 14,3 16 9 27 15 N 37 0,3
30.07.2020 21:00:00 16,0 14,0 26 14 40 22 NNE 39 0,1
30.07.2020 20:00:00 16,0 14,4 34 18 42 23 NE 44 -
30.07.2020 19:00:00 15,5 14,4 34 18 45 25 NE 27 0,4
30.07.2020 18:00:00 15,2 14,6 36 19 45 25 NE 5 2,0
30.07.2020 17:00:00 15,1 14,3 34 19 47 25 NE 8 0,3
30.07.2020 16:00:00 15,2 14,2 37 20 47 25 NE 21 0,1
30.07.2020 15:00:00 15,0 14,4 38 20 49 26 NE 7 0,7
30.07.2020 14:00:00 15,0 14,4 39 21 49 26 NE 7 0,0
30.07.2020 13:00:00 15,0 14,4 38 21 54 29 NE 7 0,1
30.07.2020 12:00:00 14,9 14,3 44 24 56 30 NE 4,6 0,3
30.07.2020 11:00:00 14,9 14,3 47 25 60 32 NE 6 1,2
30.07.2020 10:00:00 14,9 14,1 49 26 68 37 NE 6 1,6
30.07.2020 09:00:00 16,1 13,4 48 26 64 35 NNE 46 0,0
30.07.2020 08:00:00 16,0 13,1 42 23 55 30 NNE 46 0,0
30.07.2020 07:00:00 15,9 12,6 42 23 56 30 NNE 48 0,0
30.07.2020 06:00:00 16,1 12,8 43 23 55 30 NNE 50 0,0
30.07.2020 05:00:00 16,2 12,7 42 23 52 28 NNE 50 0,0
30.07.2020 04:00:00 16,2 12,9 39 21 48 26 NNE 50 0,0
30.07.2020 03:00:00 16,5 13,0 39 21 48 26 NNE 50 0,0
30.07.2020 02:00:00 16,7 13,6 36 19 44 24 NNE 50 0,0
30.07.2020 01:00:00 16,5 14,7 29 16 35 19 N 50 0,0
30.07.2020 00:00:00 16,2 15,2 23 12 29 16 N 21 0,1
29.07.2020 23:00:00 16,2 15,3 24 13 31 17 N 24 0,2
29.07.2020 22:00:00 16,2 15,4 24 13 33 18 NNE 19 0,3
29.07.2020 21:00:00 16,3 15,3 27 15 33 18 NE 35 0,1
29.07.2020 20:00:00 16,3 15,3 27 15 40 21 NE 41 0,1
29.07.2020 19:00:00 16,3 15,3 29 16 35 19 ENE 28 0,0
29.07.2020 18:00:00 16,4 15,3 27 15 35 19 ENE 26 0,0
29.07.2020 17:00:00 16,4 15,2 30 16 35 19 ENE 17 0,0
29.07.2020 16:00:00 16,2 15,1 29 15 42 23 ENE 21 0,0
29.07.2020 15:00:00 16,3 15,0 34 19 42 23 ENE 33 0,0
29.07.2020 14:00:00 16,4 14,9 32 18 38 21 ENE 26 0,0
29.07.2020 13:00:00 16,6 15,0 31 17 40 22 ENE 24 0,0
29.07.2020 12:00:00 16,3 14,7 30 16 36 20 ENE 32 0,0
29.07.2020 11:00:00 16,2 14,9 28 15 33 18 ENE 15 0,0
29.07.2020 10:00:00 16,4 15,3 19 11 27 15 NE 27 0,0
29.07.2020 09:00:00 16,5 15,4 17 9 19 10 NE 32 0,0
29.07.2020 08:00:00 16,0 15,2 16 9 24 13 ENE 13 1,2
29.07.2020 07:00:00 16,0 15,0 19 10 22 12 E 26 0,0
29.07.2020 06:00:00 16,1 15,3 18 10 24 13 E 23 0,1
29.07.2020 05:00:00 15,9 15,4 19 10 23 13 E 17 0,8
29.07.2020 04:00:00 15,9 15,4 17 9 24 13 E 8 1,0
29.07.2020 03:00:00 16,1 15,1 21 11 26 14 E 10 0,5
29.07.2020 02:00:00 16,3 14,8 15 8 21 11 E 32 0,0
29.07.2020 01:00:00 16,2 14,7 13 7 17 9 NE 50 0,0
29.07.2020 00:00:00 16,4 14,4 11 6 15 8 NNE 50 0,0

tt = temperature
td = dewpoint
ff = wind speed
fx = gusts
dd = wind direction
vv = visibility
rr = precipitation

Next stations